createdAt,value
2022-11-28T00:01:04.583Z,18.30
2022-11-28T00:03:32.357Z,16.57
2022-11-28T00:06:06.837Z,19.40
2022-11-28T00:08:35.204Z,18.53
2022-11-28T00:11:10.419Z,19.50
2022-11-28T00:13:38.372Z,16.80
2022-11-28T00:16:06.920Z,17.97
2022-11-28T00:18:34.480Z,17.27
2022-11-28T00:21:02.640Z,16.20
2022-11-28T00:23:30.461Z,16.83
2022-11-28T00:26:02.379Z,13.80
2022-11-28T00:28:29.868Z,15.30
2022-11-28T00:30:57.360Z,15.90
2022-11-28T00:33:24.915Z,16.97
2022-11-28T00:35:52.318Z,15.20
2022-11-28T00:38:19.743Z,13.80
2022-11-28T00:40:47.163Z,15.70
2022-11-28T00:43:14.847Z,15.27
2022-11-28T00:45:42.326Z,16.20
2022-11-28T00:48:09.803Z,14.00
2022-11-28T00:50:37.230Z,15.27
2022-11-28T00:53:04.758Z,14.90
2022-11-28T00:55:32.210Z,14.50
2022-11-28T00:57:59.651Z,14.03
2022-11-28T01:00:27.168Z,13.60
2022-11-28T01:02:54.577Z,13.20
2022-11-28T01:05:22.123Z,14.60
2022-11-28T01:07:49.607Z,13.13
2022-11-28T01:10:17.485Z,13.67
2022-11-28T01:12:44.936Z,13.50
2022-11-28T01:15:13.128Z,13.60
2022-11-28T01:17:40.572Z,14.27
2022-11-28T01:20:09.451Z,13.73
2022-11-28T01:22:36.982Z,12.73
2022-11-28T01:25:04.545Z,15.30
2022-11-28T01:27:31.980Z,14.43
2022-11-28T01:29:59.419Z,13.97
2022-11-28T01:32:26.850Z,14.07
2022-11-28T01:34:54.313Z,12.47
2022-11-28T01:37:21.793Z,14.40
2022-11-28T01:39:49.188Z,13.67
2022-11-28T01:42:17.705Z,12.70
2022-11-28T01:44:50.910Z,13.80
2022-11-28T01:47:21.504Z,13.40
2022-11-28T01:49:49.803Z,14.30
2022-11-28T01:52:18.173Z,15.03
2022-11-28T01:54:49.150Z,13.00
2022-11-28T01:57:19.173Z,14.40
2022-11-28T02:00:21.835Z,13.37
2022-11-28T02:03:01.584Z,14.63
2022-11-28T02:05:29.026Z,14.47
2022-11-28T02:07:56.568Z,14.97
2022-11-28T02:10:29.424Z,13.73
2022-11-28T02:12:56.892Z,12.17
2022-11-28T02:15:32.542Z,13.50
2022-11-28T02:18:03.104Z,12.90
2022-11-28T02:20:49.898Z,13.57
2022-11-28T02:23:27.408Z,12.87
2022-11-28T02:26:10.090Z,11.60
2022-11-28T02:28:56.509Z,12.60
2022-11-28T02:31:26.820Z,13.13
2022-11-28T02:33:56.322Z,11.90
2022-11-28T02:36:32.492Z,13.07
2022-11-28T02:39:13.396Z,14.00
2022-11-28T02:41:44.003Z,12.37
2022-11-28T02:44:18.954Z,11.57
2022-11-28T02:47:07.070Z,13.63
2022-11-28T02:49:39.667Z,12.40
2022-11-28T02:52:14.145Z,11.67
2022-11-28T02:54:43.102Z,12.97
2022-11-28T02:57:11.089Z,13.50
2022-11-28T02:59:38.749Z,12.20
2022-11-28T03:02:10.118Z,11.67
2022-11-28T03:04:41.368Z,13.00
2022-11-28T03:07:18.753Z,12.57
2022-11-28T03:09:57.316Z,11.37
2022-11-28T03:12:25.023Z,10.90
2022-11-28T03:14:52.704Z,12.87
2022-11-28T03:17:26.590Z,12.67
2022-11-28T03:20:09.266Z,11.97
2022-11-28T03:22:41.579Z,13.37
2022-11-28T03:25:13.573Z,12.80
2022-11-28T03:27:46.725Z,11.53
2022-11-28T03:30:14.424Z,13.30
2022-11-28T03:32:43.532Z,12.37
2022-11-28T03:35:14.713Z,11.97
2022-11-28T03:37:45.280Z,11.20
2022-11-28T03:40:15.547Z,12.57
2022-11-28T03:42:45.275Z,12.20
2022-11-28T03:45:13.068Z,13.40
2022-11-28T03:47:45.712Z,11.93
2022-11-28T03:50:16.566Z,12.47
2022-11-28T03:52:46.731Z,13.03
2022-11-28T03:55:24.212Z,12.90
2022-11-28T03:57:56.334Z,13.30
2022-11-28T04:00:25.307Z,12.87
2022-11-28T04:03:11.581Z,12.77
2022-11-28T04:05:48.470Z,12.53
2022-11-28T04:08:30.809Z,12.47
2022-11-28T04:11:10.106Z,12.83
2022-11-28T04:13:49.614Z,14.90
2022-11-28T04:16:20.196Z,25.70
2022-11-28T04:19:11.081Z,14.93
2022-11-28T04:21:48.457Z,18.90
2022-11-28T04:24:19.453Z,17.30
2022-11-28T04:26:49.792Z,12.97
2022-11-28T04:29:19.201Z,17.17
2022-11-28T04:31:47.377Z,15.27
2022-11-28T04:34:17.436Z,16.13
2022-11-28T04:36:45.787Z,15.23
2022-11-28T04:46:47.379Z,13.20
2022-11-28T04:49:14.980Z,15.83
2022-11-28T04:52:01.140Z,14.17
2022-11-28T04:54:28.480Z,13.73
2022-11-28T04:57:01.197Z,16.73
2022-11-28T04:59:29.308Z,15.17
2022-11-28T05:01:58.435Z,14.10
2022-11-28T05:04:25.898Z,14.37
2022-11-28T05:07:02.286Z,13.80
2022-11-28T05:09:29.714Z,13.17
2022-11-28T05:11:57.202Z,13.23
2022-11-28T05:14:24.602Z,13.17
2022-11-28T05:16:52.159Z,14.23
2022-11-28T05:19:19.746Z,13.13
2022-11-28T05:21:47.145Z,41.53
2022-11-28T05:24:14.655Z,15.63
2022-11-28T05:26:42.286Z,12.87
2022-11-28T05:29:09.686Z,13.80
2022-11-28T05:31:40.787Z,35.60
2022-11-28T05:34:08.250Z,18.70
2022-11-28T05:36:35.836Z,13.67
2022-11-28T05:39:03.310Z,15.60
2022-11-28T05:41:31.999Z,12.30
2022-11-28T05:43:59.994Z,15.37
2022-11-28T05:46:28.032Z,13.97
2022-11-28T05:48:55.603Z,12.23
2022-11-28T05:51:22.998Z,12.50
2022-11-28T05:53:50.551Z,15.07
2022-11-28T05:56:19.111Z,13.20
2022-11-28T05:58:46.733Z,12.37
2022-11-28T06:01:19.115Z,13.33
2022-11-28T06:03:46.577Z,12.63
2022-11-28T06:06:18.609Z,12.70
2022-11-28T06:08:46.428Z,14.27
2022-11-28T06:11:15.036Z,13.70
2022-11-28T06:13:43.580Z,11.57
2022-11-28T06:16:12.144Z,12.83
2022-11-28T06:18:40.041Z,12.87
2022-11-28T06:21:08.353Z,14.17
2022-11-28T06:23:36.041Z,12.20
2022-11-28T06:26:07.784Z,11.73
2022-11-28T06:28:35.739Z,12.33
2022-11-28T06:31:03.700Z,12.33
2022-11-28T06:33:31.063Z,13.33
2022-11-28T06:36:02.249Z,12.13
2022-11-28T06:38:29.984Z,13.70
2022-11-28T06:41:01.655Z,14.40
2022-11-28T06:43:29.057Z,12.00
2022-11-28T06:45:56.517Z,12.03
2022-11-28T06:48:24.316Z,11.83
2022-11-28T06:50:52.280Z,12.37
2022-11-28T06:53:20.091Z,12.83
2022-11-28T06:55:48.012Z,13.07
2022-11-28T06:58:15.390Z,13.93
2022-11-28T07:00:42.923Z,14.97
2022-11-28T07:03:10.338Z,13.57
2022-11-28T07:05:38.159Z,13.03
2022-11-28T07:08:05.689Z,12.53
2022-11-28T07:10:33.181Z,12.93
2022-11-28T07:13:05.422Z,12.47
2022-11-28T07:15:33.240Z,11.80
2022-11-28T07:18:01.560Z,10.50
2022-11-28T07:20:29.071Z,12.33
2022-11-28T07:22:56.626Z,10.37
2022-11-28T07:25:23.978Z,11.80
2022-11-28T07:27:51.418Z,10.53
2022-11-28T07:30:20.147Z,11.80
2022-11-28T07:32:47.663Z,12.30
2022-11-28T07:35:15.095Z,12.70
2022-11-28T07:37:42.533Z,11.90
2022-11-28T07:40:10.078Z,12.03
2022-11-28T07:42:37.597Z,13.87
2022-11-28T07:45:05.774Z,17.30
2022-11-28T07:47:34.594Z,13.87
2022-11-28T07:50:02.069Z,14.90
2022-11-28T07:52:29.493Z,13.13
2022-11-28T07:54:56.898Z,12.67
2022-11-28T07:57:24.326Z,12.17
2022-11-28T07:59:51.860Z,11.50
2022-11-28T08:02:19.436Z,13.30
2022-11-28T08:04:51.608Z,11.37
2022-11-28T08:07:21.524Z,12.20
2022-11-28T08:09:49.051Z,11.37
2022-11-28T08:12:16.567Z,13.67
2022-11-28T08:14:44.444Z,13.10
2022-11-28T08:17:12.205Z,11.33
2022-11-28T08:19:39.687Z,12.30
2022-11-28T08:22:07.103Z,11.70
2022-11-28T08:24:34.526Z,12.37
2022-11-28T08:27:01.997Z,10.83
2022-11-28T08:29:29.454Z,11.37
2022-11-28T08:31:56.926Z,13.20
2022-11-28T08:34:24.450Z,10.70
2022-11-28T08:36:51.992Z,10.70
2022-11-28T08:39:24.483Z,11.53
2022-11-28T08:41:52.565Z,12.20
2022-11-28T08:44:19.923Z,13.27
2022-11-28T08:46:47.326Z,12.63
2022-11-28T08:49:14.729Z,10.87
2022-11-28T08:51:42.172Z,13.90
2022-11-28T08:54:09.664Z,13.70
2022-11-28T08:56:37.002Z,12.47
2022-11-28T08:59:04.522Z,14.37
2022-11-28T09:01:32.108Z,14.37
2022-11-28T09:03:59.728Z,14.00
2022-11-28T09:06:27.258Z,14.27
2022-11-28T09:08:54.703Z,14.07
2022-11-28T09:11:22.729Z,12.53
2022-11-28T09:13:50.250Z,13.07
2022-11-28T09:16:17.923Z,15.27
2022-11-28T09:18:45.377Z,13.67
2022-11-28T09:21:13.568Z,13.50
2022-11-28T09:23:41.887Z,12.90
2022-11-28T09:26:10.226Z,15.13
2022-11-28T09:28:37.844Z,12.83
2022-11-28T09:31:06.571Z,13.53
2022-11-28T09:33:34.240Z,15.93
2022-11-28T09:36:08.562Z,14.10
2022-11-28T09:38:36.550Z,14.00
2022-11-28T09:41:04.758Z,14.40
2022-11-28T09:43:32.150Z,14.93
2022-11-28T09:46:01.412Z,14.90
2022-11-28T09:48:32.632Z,14.60
2022-11-28T09:51:20.315Z,12.20
2022-11-28T09:53:51.606Z,14.87
2022-11-28T09:56:21.986Z,14.40
2022-11-28T09:58:52.372Z,15.20
2022-11-28T10:01:33.167Z,14.27
2022-11-28T10:04:06.603Z,14.80
2022-11-28T10:06:40.066Z,12.60
2022-11-28T10:09:22.773Z,12.77
2022-11-28T10:12:08.926Z,12.07
2022-11-28T10:14:51.381Z,13.37
2022-11-28T10:17:37.491Z,14.60
2022-11-28T10:20:13.230Z,12.03
2022-11-28T10:22:52.831Z,14.37
2022-11-28T10:25:27.521Z,13.57
2022-11-28T10:27:55.575Z,14.07
2022-11-28T10:30:27.285Z,11.73
2022-11-28T10:33:13.409Z,14.70
2022-11-28T10:35:47.074Z,14.77
2022-11-28T10:38:15.240Z,14.10
2022-11-28T10:40:49.663Z,14.17
2022-11-28T10:43:35.731Z,13.30
2022-11-28T10:46:09.368Z,13.77
2022-11-28T10:48:44.470Z,15.27
2022-11-28T10:51:28.978Z,14.33
2022-11-28T10:54:14.447Z,17.50
2022-11-28T10:57:20.534Z,13.47
2022-11-28T11:00:11.399Z,14.53
2022-11-28T11:02:51.905Z,13.60
2022-11-28T11:05:20.850Z,13.40
2022-11-28T11:07:55.941Z,13.73
2022-11-28T11:10:32.250Z,13.50
2022-11-28T11:13:00.079Z,13.73
2022-11-28T11:15:33.894Z,14.93
2022-11-28T11:18:21.808Z,15.80
2022-11-28T11:20:49.341Z,14.33
2022-11-28T11:23:20.904Z,12.87
2022-11-28T11:25:50.581Z,14.70
2022-11-28T11:28:29.042Z,13.53
2022-11-28T11:31:07.777Z,15.90
2022-11-28T11:33:36.338Z,16.87
2022-11-28T11:36:04.876Z,30.33
2022-11-28T11:38:38.063Z,25.73
2022-11-28T11:41:25.938Z,19.63
2022-11-28T11:43:53.293Z,28.63
2022-11-28T11:46:20.807Z,25.10
2022-11-28T11:48:49.473Z,28.97
2022-11-28T11:51:22.597Z,15.87
2022-11-28T11:53:50.060Z,13.57
2022-11-28T11:56:18.459Z,13.07
2022-11-28T11:58:47.605Z,12.83
2022-11-28T12:01:16.312Z,13.00
2022-11-28T12:03:46.881Z,15.77
2022-11-28T12:06:17.007Z,12.97
2022-11-28T12:08:44.579Z,12.20
2022-11-28T12:11:24.182Z,14.80
2022-11-28T12:13:51.834Z,12.33
2022-11-28T12:16:19.342Z,13.43
2022-11-28T12:18:52.754Z,12.40
2022-11-28T12:21:34.509Z,14.33
2022-11-28T12:24:14.230Z,11.60
2022-11-28T12:26:50.942Z,12.07
2022-11-28T12:29:27.252Z,12.87
2022-11-28T12:32:03.733Z,15.23
2022-11-28T12:34:31.146Z,12.83
2022-11-28T12:37:17.269Z,12.17
2022-11-28T12:40:03.474Z,13.53
2022-11-28T12:42:55.543Z,13.23
2022-11-28T12:45:37.053Z,14.03
2022-11-28T12:48:23.317Z,12.17
2022-11-28T12:50:53.390Z,12.50
2022-11-28T12:53:42.351Z,12.17
2022-11-28T12:56:30.077Z,14.67
2022-11-28T12:59:03.594Z,12.17
2022-11-28T13:01:31.141Z,13.17
2022-11-28T13:04:01.549Z,13.27
2022-11-28T13:06:32.101Z,12.47
2022-11-28T13:09:06.624Z,12.33
2022-11-28T13:11:52.469Z,12.13
2022-11-28T13:14:32.407Z,13.87
2022-11-28T13:17:06.228Z,12.37
2022-11-28T13:20:03.186Z,13.80
2022-11-28T13:22:36.668Z,13.83
2022-11-28T13:25:12.854Z,13.83
2022-11-28T13:27:45.638Z,12.67
2022-11-28T13:30:39.186Z,12.37
2022-11-28T13:33:06.570Z,13.37
2022-11-28T13:35:34.174Z,12.53
2022-11-28T13:38:47.178Z,15.40
2022-11-28T13:41:43.798Z,13.37
2022-11-28T13:44:18.533Z,12.73
2022-11-28T13:46:46.523Z,13.03
2022-11-28T13:49:24.539Z,12.57
2022-11-28T13:52:12.248Z,13.30
2022-11-28T13:54:43.525Z,14.60
2022-11-28T13:57:28.656Z,14.23
2022-11-28T14:00:01.542Z,14.03
2022-11-28T14:02:36.403Z,12.37
2022-11-28T14:05:04.589Z,13.83
2022-11-28T14:07:33.462Z,13.07
2022-11-28T14:10:09.991Z,15.90
2022-11-28T14:12:57.729Z,15.43
2022-11-28T14:15:43.378Z,16.17
2022-11-28T14:18:47.974Z,13.23
2022-11-28T14:21:19.878Z,13.77
2022-11-28T14:24:06.071Z,14.90
2022-11-28T14:26:35.074Z,13.23
2022-11-28T14:29:05.094Z,15.53
2022-11-28T14:31:39.695Z,15.63
2022-11-28T14:34:26.433Z,13.17
2022-11-28T14:37:14.300Z,12.77
2022-11-28T14:39:41.862Z,14.13
2022-11-28T14:42:10.326Z,13.57
2022-11-28T14:44:50.741Z,13.37
2022-11-28T14:47:32.221Z,14.53
2022-11-28T14:50:27.990Z,12.60
2022-11-28T14:53:16.009Z,12.17
2022-11-28T14:55:44.612Z,13.30
2022-11-28T14:58:14.342Z,12.90
2022-11-28T15:00:55.975Z,11.57
2022-11-28T15:03:26.932Z,12.77
2022-11-28T15:06:13.472Z,12.00
2022-11-28T15:08:52.488Z,12.10
2022-11-28T15:11:29.151Z,13.10
2022-11-28T15:14:05.383Z,11.83
2022-11-28T15:16:34.950Z,15.27
2022-11-28T15:19:23.166Z,12.63
2022-11-28T15:21:51.581Z,12.37
2022-11-28T15:24:26.635Z,12.30
2022-11-28T15:27:14.569Z,13.00
2022-11-28T15:29:41.984Z,12.57
2022-11-28T15:32:14.309Z,15.90
2022-11-28T15:34:42.623Z,14.07
2022-11-28T15:37:17.561Z,13.50
2022-11-28T15:39:47.010Z,14.57
2022-11-28T15:42:20.729Z,13.43
2022-11-28T15:44:48.372Z,13.53
2022-11-28T15:47:22.113Z,12.53
2022-11-28T15:50:00.266Z,13.50
2022-11-28T15:52:31.869Z,14.53
2022-11-28T15:54:59.739Z,13.67
2022-11-28T15:57:32.371Z,12.80
2022-11-28T16:00:00.003Z,14.10
2022-11-28T16:02:35.254Z,13.67
2022-11-28T16:05:08.894Z,14.23
2022-11-28T16:07:41.367Z,12.87
2022-11-28T16:10:18.502Z,13.50
2022-11-28T16:12:46.182Z,12.70
2022-11-28T16:15:17.923Z,12.97
2022-11-28T16:17:45.472Z,12.37
2022-11-28T16:20:30.297Z,12.13
2022-11-28T16:23:05.138Z,11.80
2022-11-28T16:25:32.743Z,16.37
2022-11-28T16:28:00.274Z,13.27
2022-11-28T16:30:30.770Z,13.10
2022-11-28T16:32:58.253Z,13.80
2022-11-28T16:35:40.639Z,12.03
2022-11-28T16:38:19.501Z,11.57
2022-11-28T16:40:46.953Z,15.03
2022-11-28T16:43:22.274Z,14.50
2022-11-28T16:45:58.139Z,11.90
2022-11-28T16:48:27.303Z,13.53
2022-11-28T16:51:03.642Z,13.07
2022-11-28T16:53:49.784Z,13.40
2022-11-28T16:56:32.306Z,13.17
2022-11-28T16:59:02.828Z,14.47
2022-11-28T17:01:31.375Z,12.90
2022-11-28T17:03:59.052Z,14.53
2022-11-28T17:06:28.941Z,12.17
2022-11-28T17:08:57.141Z,13.33
2022-11-28T17:11:27.367Z,13.23
2022-11-28T17:13:57.702Z,13.13
2022-11-28T17:16:26.699Z,12.37
2022-11-28T17:18:54.591Z,11.83
2022-11-28T17:21:32.342Z,14.90
2022-11-28T17:24:00.548Z,13.93
2022-11-28T17:26:27.929Z,14.00
2022-11-28T17:28:55.341Z,13.57
2022-11-28T17:31:23.882Z,14.27
2022-11-28T17:33:51.719Z,13.43
2022-11-28T17:36:19.149Z,12.30
2022-11-28T17:38:46.576Z,13.27
2022-11-28T17:41:14.917Z,13.87
2022-11-28T17:43:42.888Z,12.97
2022-11-28T17:46:10.656Z,13.63
2022-11-28T17:48:38.188Z,12.93
2022-11-28T17:51:06.515Z,12.77
2022-11-28T17:53:34.000Z,12.83
2022-11-28T17:56:01.559Z,13.70
2022-11-28T17:58:29.360Z,14.90
2022-11-28T18:01:00.488Z,13.40
2022-11-28T18:03:29.343Z,13.60
2022-11-28T18:05:56.836Z,15.97
2022-11-28T18:08:24.762Z,13.30
2022-11-28T18:11:02.407Z,13.40
2022-11-28T18:13:29.966Z,13.73
2022-11-28T18:15:59.192Z,15.07
2022-11-28T18:18:27.018Z,13.17
2022-11-28T18:20:54.691Z,12.53
2022-11-28T18:23:22.697Z,13.13
2022-11-28T18:25:50.251Z,14.40
2022-11-28T18:28:19.178Z,14.43
2022-11-28T18:30:48.598Z,13.77
2022-11-28T18:33:16.918Z,16.57
2022-11-28T18:35:44.439Z,15.50
2022-11-28T18:38:12.080Z,16.27
2022-11-28T18:40:39.702Z,15.57
2022-11-28T18:43:07.176Z,19.17
2022-11-28T18:45:35.278Z,14.80
2022-11-28T18:48:03.297Z,15.37
2022-11-28T18:50:32.250Z,16.30
2022-11-28T18:52:59.830Z,15.20
2022-11-28T18:55:27.562Z,15.40
2022-11-28T18:57:55.093Z,17.57
2022-11-28T19:00:22.925Z,16.00
2022-11-28T19:02:52.216Z,17.23
2022-11-28T19:05:19.634Z,16.53
2022-11-28T19:07:47.296Z,14.50
2022-11-28T19:10:15.310Z,15.93
2022-11-28T19:12:43.732Z,14.13
2022-11-28T19:15:11.911Z,15.40
2022-11-28T19:17:39.495Z,16.40
2022-11-28T19:20:07.262Z,17.77
2022-11-28T19:22:36.087Z,17.57
2022-11-28T19:25:03.684Z,15.83
2022-11-28T19:27:31.292Z,19.07
2022-11-28T19:29:58.924Z,19.87
2022-11-28T19:32:26.381Z,21.27
2022-11-28T19:34:54.422Z,21.17
2022-11-28T19:37:22.982Z,32.03
2022-11-28T19:39:52.588Z,29.53
2022-11-28T19:42:20.105Z,30.03
2022-11-28T19:44:48.285Z,28.00
2022-11-28T19:47:16.528Z,26.83
2022-11-28T19:49:44.381Z,25.90
2022-11-28T19:52:11.956Z,30.70
2022-11-28T19:54:39.616Z,33.53
2022-11-28T19:57:11.045Z,34.30
2022-11-28T19:59:38.486Z,24.40
2022-11-28T20:02:06.628Z,34.80
2022-11-28T20:04:34.129Z,32.10
2022-11-28T20:07:01.701Z,30.80
2022-11-28T20:09:29.149Z,26.50
2022-11-28T20:11:56.723Z,22.77
2022-11-28T20:14:24.190Z,24.07
2022-11-28T20:16:53.014Z,22.17
2022-11-28T20:19:20.444Z,21.63
2022-11-28T20:21:48.682Z,21.63
2022-11-28T20:24:16.326Z,18.20
2022-11-28T20:26:45.885Z,19.83
2022-11-28T20:29:14.397Z,21.23
2022-11-28T20:31:46.378Z,21.67
2022-11-28T20:34:16.853Z,20.70
2022-11-28T20:36:44.553Z,19.53
2022-11-28T20:39:12.553Z,20.30
2022-11-28T20:41:40.122Z,22.20
2022-11-28T20:44:08.265Z,19.67
2022-11-28T20:46:35.937Z,19.87
2022-11-28T20:49:06.610Z,18.73
2022-11-28T20:51:35.195Z,18.13
2022-11-28T20:54:04.820Z,21.57
2022-11-28T20:57:05.200Z,22.70
2022-11-28T20:59:26.841Z,21.03
2022-11-28T21:01:54.697Z,20.27
2022-11-28T21:04:22.282Z,18.80
2022-11-28T21:06:49.878Z,20.83
2022-11-28T21:09:20.143Z,18.23
2022-11-28T21:11:58.564Z,18.10
2022-11-28T21:14:26.788Z,17.10
2022-11-28T21:16:54.304Z,16.73
2022-11-28T21:19:21.921Z,17.10
2022-11-28T21:21:49.469Z,19.90
2022-11-28T21:24:16.904Z,17.93
2022-11-28T21:26:49.710Z,17.90
2022-11-28T21:29:21.097Z,17.57
2022-11-28T21:31:48.664Z,17.80
2022-11-28T21:34:17.021Z,19.47
2022-11-28T21:36:44.704Z,18.07
2022-11-28T21:39:16.342Z,17.77
2022-11-28T21:41:43.763Z,18.63
2022-11-28T21:44:11.434Z,16.57
2022-11-28T21:46:38.987Z,20.07
2022-11-28T21:49:06.837Z,23.73
2022-11-28T21:51:38.678Z,20.10
2022-11-28T21:54:06.686Z,20.03
2022-11-28T21:56:34.821Z,18.67
2022-11-28T21:59:02.244Z,16.97
2022-11-28T22:01:29.802Z,18.33
2022-11-28T22:04:02.348Z,17.30
2022-11-28T22:06:31.718Z,15.93
2022-11-28T22:09:05.610Z,16.33
2022-11-28T22:11:36.057Z,17.40
2022-11-28T22:14:04.486Z,16.63
2022-11-28T22:16:31.985Z,16.73
2022-11-28T22:19:01.171Z,18.53
2022-11-28T22:21:51.777Z,15.40
2022-11-28T22:24:16.375Z,15.30
2022-11-28T22:26:44.491Z,17.80
2022-11-28T22:29:12.984Z,17.97
2022-11-28T22:31:41.919Z,16.50
2022-11-28T22:34:10.230Z,17.97
2022-11-28T22:36:38.678Z,15.63
2022-11-28T22:39:06.409Z,17.13
2022-11-28T22:41:34.005Z,16.70
2022-11-28T22:44:02.539Z,16.73
2022-11-28T22:46:32.015Z,16.40
2022-11-28T22:49:00.844Z,16.03
2022-11-28T22:51:29.261Z,18.57
2022-11-28T22:53:57.659Z,15.53
2022-11-28T22:56:27.473Z,16.33
2022-11-28T22:58:54.909Z,16.17
2022-11-28T23:01:27.479Z,16.57
2022-11-28T23:03:55.834Z,15.50
2022-11-28T23:06:25.248Z,15.47
2022-11-28T23:08:56.324Z,16.50
2022-11-28T23:11:27.204Z,15.87
2022-11-28T23:13:54.689Z,17.37
2022-11-28T23:16:24.459Z,15.73
2022-11-28T23:18:54.086Z,15.17
2022-11-28T23:21:22.520Z,15.47
2022-11-28T23:23:50.457Z,15.47
2022-11-28T23:26:22.184Z,15.53
2022-11-28T23:28:50.829Z,16.50
2022-11-28T23:31:19.624Z,17.47
2022-11-28T23:33:47.767Z,17.30
2022-11-28T23:36:18.178Z,15.47
2022-11-28T23:38:46.275Z,15.47
2022-11-28T23:41:14.032Z,15.47
2022-11-28T23:43:41.521Z,17.07
2022-11-28T23:46:10.176Z,15.93
2022-11-28T23:48:37.744Z,16.47
2022-11-28T23:51:06.424Z,13.83
2022-11-28T23:53:34.437Z,16.03
2022-11-28T23:56:09.402Z,15.97
2022-11-28T23:58:36.793Z,16.03
